Etusivu
METAR-TAF:

METAR-TAF

Lentoasemat :

Ísafjörður, Islanti

Leveyspiiri: 66-03-29N, Pituuspiiri: 23-08-07W, korkeus merenpinnasta: 2 m

Tämänhetkinen sää

Tämä raportti tehtiin 1 tunti ja 3 minuuttia sitten, kello 17.00 UTC
Tuuli 17 kn pohjoisesta/koillisesta
Lämpötila 0°C
Kosteus 80%
Ilmanpaine 989 hPa
Näkyvyys 10 km tai enemmän
Pilvistä 2500 ft:n korkeudessa

METAR: BIIS 051700Z 02017KT 9999 OVC025 00/M03 Q0989 R88/4915//

Aika: 18:03 (18:03 UTC)

Sääennuste

Tämä raportti tehtiin 1 tunti ja 59 minuuttia sitten, kello 16.04 UTC
Ennuste voimassa 05. päivästä klo 17 UTC - 06. päivään klo 02 UTC
Tuuli 20 kn pohjoisesta/koillisesta puuskistuen 30 kn:hen
Näkyvyys: 2000 m
Pilvistä 1000 ft:n korkeudessa
lumisadetta
Tulossa
05. päivästä klo 17 UTC - 05. päivään klo 18 UTC
Näkyvyys: 8000 m
Hajonneita pilviä 1500 ft:n korkeudessa
Pilvistä 2500 ft:n korkeudessa
heikkoa lumisadetta

TAF: BIIS 051604Z 0517/0602 03020G30KT 2000 SN OVC010 BECMG 0517/0518 8000 -SN BKN015 OVC025

Säähavainnot ja -ennusteet yli 4000 lentoasemalta (METAR- ja TAF-raportit).

Käytössä olevat sääasemat on merkitty karttaan keltaisilla ja punaisilla pisteillä.

Aseta hiiri pisteen päälle nähdäksesi sääaseman nimen.

Klikkaa sitten nähdäksesi säähavainnot ja -ennusteet.

Kartan vaihtaminen: klikkaa mustalla rastilla varustettuja vihreitä pisteitä, niin voit zoomata sisään; viivalla varustettua vihreää pistettä, niin voit zoomata ulos tai vihreitä nuolia, niin pääset viereisille kartoille.


METAR-TAF: